Time;durP1;ratioP1;P1;durP2;ratioP2;P2;SDS_P1;SDS_P2;PMS_P1;PMS_P2;Temp;Humidity;BMP_temperature;BMP_pressure;BME280_temperature;BME280_humidity;BME280_pressure;Samples;Min_cycle;Max_cycle;Signal;HPM_P1;HPM_P2
2021/07/22 05:02:59;;;;;;;12.32;11.15;;;;;;;30.55;41.00;95019.41;5069531;22;20064;-84
2021/07/22 05:05:28;;;;;;;12.35;11.40;;;;;;;31.28;39.84;95022.06;5065393;28;20564;-84
2021/07/22 05:07:53;;;;;;;11.88;10.98;;;;;;;30.51;42.22;95020.28;5066672;28;20032;-83
2021/07/22 05:10:19;;;;;;;14.13;10.88;;;;;;;30.49;41.49;95015.25;5067492;28;20039;-82
2021/07/22 05:12:44;;;;;;;12.57;11.48;;;;;;;30.32;41.07;95021.13;5065484;28;20035;-84
2021/07/22 05:15:11;;;;;;;12.15;11.23;;;;;;;31.22;40.29;95022.47;5066857;28;20025;-81
2021/07/22 05:17:37;;;;;;;11.38;10.35;;;;;;;30.40;41.07;95018.91;5059829;28;20086;-82
2021/07/22 05:20:03;;;;;;;12.10;11.15;;;;;;;30.94;41.11;95005.59;5065264;28;20462;-84
2021/07/22 05:22:28;;;;;;;13.07;11.50;;;;;;;31.73;39.25;95014.19;5041344;28;20024;-83
2021/07/22 05:24:54;;;;;;;13.43;12.07;;;;;;;31.42;39.15;95022.06;5061087;28;20504;-84
2021/07/22 05:27:19;;;;;;;13.63;12.52;;;;;;;31.53;39.00;95025.38;5067008;28;20020;-84
2021/07/22 05:29:45;;;;;;;12.32;11.23;;;;;;;31.28;38.77;95021.28;5065891;28;20465;-82
2021/07/22 05:32:13;;;;;;;11.43;10.52;;;;;;;31.09;40.46;95018.72;5067222;28;20032;-83
2021/07/22 05:34:38;;;;;;;11.85;10.88;;;;;;;30.71;41.11;95023.41;5065311;28;20075;-85
2021/07/22 05:37:05;;;;;;;12.80;11.63;;;;;;;32.14;38.30;95036.31;5065453;28;20032;-82
2021/07/22 05:39:30;;;;;;;13.15;11.88;;;;;;;32.35;37.28;95025.91;5064093;28;20040;-83
2021/07/22 05:41:56;;;;;;;14.00;12.65;;;;;;;28.21;44.88;95035.09;5066155;28;20036;-81
2021/07/22 05:44:21;;;;;;;14.50;13.30;;;;;;;29.89;41.87;95030.34;5065415;28;20521;-81
2021/07/22 05:46:47;;;;;;;13.18;11.93;;;;;;;32.36;38.17;95033.66;5065898;28;20101;-79
2021/07/22 05:49:12;;;;;;;12.65;11.45;;;;;;;32.15;37.59;95031.75;5065863;28;20390;-79
2021/07/22 05:51:38;;;;;;;12.65;11.48;;;;;;;33.51;35.81;95028.22;5064830;28;20029;-80
2021/07/22 05:54:03;;;;;;;12.10;11.00;;;;;;;32.34;38.11;95022.44;5066386;28;20017;-81
2021/07/22 05:56:29;;;;;;;13.68;12.23;;;;;;;33.31;36.28;95029.59;5062675;28;20040;-80
2021/07/22 05:58:54;;;;;;;13.05;11.75;;;;;;;31.60;38.40;95020.38;5051523;28;20050;-79
2021/07/22 06:01:20;;;;;;;13.65;12.55;;;;;;;32.69;37.02;95028.81;5035469;28;20498;-80
2021/07/22 06:03:46;;;;;;;14.15;12.73;;;;;;;32.92;36.68;95039.53;5066883;28;20017;-80
2021/07/22 06:06:11;;;;;;;14.30;13.20;;;;;;;31.49;38.07;95043.91;5069820;28;20028;-80
2021/07/22 06:08:37;;;;;;;13.20;12.00;;;;;;;34.18;35.46;95033.25;5065162;28;20024;-80
2021/07/22 06:21:12;;;;;;;13.30;10.95;;;;;;;33.67;34.97;95040.16;5069728;28;20134;-79
2021/07/22 06:23:38;;;;;;;12.10;11.10;;;;;;;34.03;34.67;95036.38;5071040;28;20410;-78
2021/07/22 06:26:03;;;;;;;12.43;11.30;;;;;;;34.23;34.71;95035.78;5068836;28;20036;-80
2021/07/22 06:28:29;;;;;;;10.05;9.18;;;;;;;34.17;34.93;95045.09;5071106;28;20028;-80
2021/07/22 06:30:55;;;;;;;10.55;9.50;;;;;;;34.86;34.22;95046.63;5068702;28;20511;-79
2021/07/22 06:33:20;;;;;;;11.02;9.90;;;;;;;34.70;34.30;95037.50;5069456;28;20016;-78
2021/07/22 06:35:46;;;;;;;12.32;10.32;;;;;;;33.76;35.09;95035.56;5048457;28;20054;-79
2021/07/22 06:38:12;;;;;;;9.80;9.00;;;;;;;35.17;34.06;95050.97;5070300;28;20055;-78
2021/07/22 06:40:37;;;;;;;10.48;9.48;;;;;;;35.22;33.05;95042.72;5069874;28;20118;-78
2021/07/22 06:43:03;;;;;;;9.18;8.48;;;;;;;35.36;33.38;95035.97;5069431;28;20469;-80
2021/07/22 06:45:28;;;;;;;10.07;9.32;;;;;;;33.84;34.75;95040.16;5070613;28;20021;-78
2021/07/22 06:47:54;;;;;;;10.18;9.38;;;;;;;34.50;32.92;95043.50;5068627;28;20532;-79
2021/07/22 06:50:19;;;;;;;9.63;8.82;;;;;;;34.21;34.99;95032.59;5070189;28;20559;-81
2021/07/22 06:52:45;;;;;;;9.13;8.23;;;;;;;34.41;34.65;95035.44;5067683;28;20040;-79
2021/07/22 06:55:11;;;;;;;7.43;6.75;;;;;;;35.51;32.50;95028.47;5068331;28;20536;-79
2021/07/22 06:57:36;;;;;;;9.48;8.77;;;;;;;33.56;36.04;95033.44;5067757;28;20432;-79
2021/07/22 07:20:16;;;;;;;7.25;6.63;;;;;;;32.45;37.49;95006.09;5045971;28;20143;-80
2021/07/22 07:22:41;;;;;;;6.75;6.15;;;;;;;31.95;36.25;95005.41;5086050;28;20930;-78
2021/07/22 07:25:07;;;;;;;5.97;5.32;;;;;;;34.21;34.13;95003.00;5087411;28;20032;-76
2021/07/22 07:27:34;;;;;;;6.57;5.97;;;;;;;29.63;40.17;94991.69;5047129;28;20082;-77
2021/07/22 07:30:00;;;;;;;6.68;6.05;;;;;;;27.02;47.14;95006.97;5031128;28;20040;-76
2021/07/22 07:32:25;;;;;;;6.25;5.53;;;;;;;27.21;46.38;95005.28;5048708;28;20029;-75
2021/07/22 07:34:51;;;;;;;6.57;5.75;;;;;;;25.33;52.25;95001.13;5047260;28;20492;-76
2021/07/22 07:37:16;;;;;;;5.57;4.78;;;;;;;26.35;49.37;95002.84;5049640;28;20086;-77
2021/07/22 07:39:42;;;;;;;5.32;4.50;;;;;;;26.87;46.45;95004.38;5047363;28;20033;-79
2021/07/22 07:42:07;;;;;;;9.23;5.28;;;;;;;27.56;45.63;95005.13;5048872;28;20021;-76
2021/07/22 07:44:32;;;;;;;5.57;4.30;;;;;;;26.41;47.13;95004.44;5046621;28;20028;-77
2021/07/22 07:46:58;;;;;;;5.68;4.80;;;;;;;24.89;50.30;95005.97;5048987;28;20025;-77
2021/07/22 07:49:23;;;;;;;5.07;4.57;;;;;;;25.49;48.04;94994.81;5048120;28;20040;-76
2021/07/22 07:51:49;;;;;;;4.13;3.83;;;;;;;25.78;47.13;94989.81;5048157;28;20086;-76
2021/07/22 07:54:19;;;;;;;4.10;3.80;;;;;;;26.20;46.90;94997.53;5048961;28;20029;-77
2021/07/22 07:56:44;;;;;;;7.00;4.60;;;;;;;25.64;49.43;95009.97;5045757;28;20082;-78
2021/07/22 07:59:10;;;;;;;4.72;4.43;;;;;;;26.08;46.78;95003.09;5048952;28;20021;-78
2021/07/22 08:01:35;;;;;;;4.60;4.20;;;;;;;25.55;50.30;95009.69;5046844;28;20037;-77
2021/07/22 08:04:01;;;;;;;7.25;4.75;;;;;;;26.02;51.28;95009.47;5048885;28;20021;-77
2021/07/22 08:06:26;;;;;;;4.85;3.83;;;;;;;26.57;48.33;95006.00;5046154;28;20526;-77
2021/07/22 08:08:52;;;;;;;9.30;4.93;;;;;;;26.96;48.80;95003.53;5047961;28;20029;-78
2021/07/22 08:11:18;;;;;;;3.75;3.47;;;;;;;25.44;48.96;95005.38;5047736;28;20029;-77
2021/07/22 08:13:43;;;;;;;4.60;4.20;;;;;;;24.76;49.91;95006.41;5047476;28;20562;-77
2021/07/22 08:16:14;;;;;;;5.00;4.50;;;;;;;23.99;52.28;95016.72;5048223;28;20021;-77
2021/07/22 08:18:40;;;;;;;4.60;4.30;;;;;;;25.33;52.02;95010.94;5066391;28;20036;-76
2021/07/22 08:21:06;;;;;;;4.45;3.80;;;;;;;25.76;47.04;94999.88;5068104;28;20049;-75
2021/07/22 08:23:32;;;;;;;4.18;3.88;;;;;;;24.72;50.66;95004.53;5066331;28;20028;-76
2021/07/22 08:25:57;;;;;;;4.18;3.78;;;;;;;24.87;50.20;95002.00;5067238;28;20027;-76
2021/07/22 08:28:23;;;;;;;4.20;3.90;;;;;;;24.82;51.09;95004.63;5067105;28;20036;-76
2021/07/22 08:30:48;;;;;;;4.10;3.70;;;;;;;25.59;51.49;95005.44;5067306;28;20043;-76
2021/07/22 08:33:14;;;;;;;5.70;4.00;;;;;;;26.75;47.04;95001.97;5067705;28;20569;-76
2021/07/22 08:35:39;;;;;;;4.10;3.53;;;;;;;27.00;45.95;95003.78;5066283;28;20024;-76
2021/07/22 08:38:04;;;;;;;4.55;3.25;;;;;;;26.01;46.81;95002.56;5067888;28;20062;-76
2021/07/22 08:40:30;;;;;;;4.10;3.58;;;;;;;24.33;50.93;95012.78;5066053;28;20082;-76
2021/07/22 08:43:03;;;;;;;4.28;3.88;;;;;;;23.91;53.17;95020.63;5067914;28;20048;-72
2021/07/22 08:45:28;;;;;;;4.35;4.05;;;;;;;24.99;50.26;95010.53;5048671;28;20021;-76
2021/07/22 08:47:54;;;;;;;5.63;4.28;;;;;;;25.23;47.87;95014.34;5067290;28;20409;-76
2021/07/22 08:50:19;;;;;;;3.83;3.50;;;;;;;25.42;46.38;95004.03;5067518;28;20489;-76
2021/07/22 08:52:45;;;;;;;4.68;4.15;;;;;;;24.97;48.87;95010.78;5066654;28;20032;-76
2021/07/22 08:55:11;;;;;;;4.63;4.18;;;;;;;24.29;48.74;95011.69;5033196;28;20056;-76
2021/07/22 08:57:36;;;;;;;3.65;3.35;;;;;;;25.68;48.10;95006.53;5065532;28;20024;-77
2021/07/22 09:00:04;;;;;;;3.67;3.40;;;;;;;27.51;45.20;95001.72;5067267;28;20494;-75
2021/07/22 09:02:32;;;;;;;5.25;3.50;;;;;;;27.55;44.71;95003.53;5066051;28;20024;-76
2021/07/22 09:12:00;;;;;;;3.30;2.85;;;;;;;26.89;46.05;94999.56;5058665;28;20042;-74
2021/07/22 09:14:27;;;;;;;3.95;3.55;;;;;;;25.88;49.05;94999.66;5065450;28;20028;-74
2021/07/22 09:16:53;;;;;;;5.38;4.97;;;;;;;25.20;50.22;94998.16;5067074;28;20115;-74
2021/07/22 09:19:38;;;;;;;3.97;3.67;;;;;;;25.09;52.78;94994.66;5065515;28;20032;-74
2021/07/22 09:22:04;;;;;;;4.57;3.63;;;;;;;24.55;51.64;94994.91;5066503;28;20041;-74
2021/07/22 09:24:38;;;;;;;5.65;3.35;;;;;;;24.09;54.02;94995.63;5066374;28;20090;-75
2021/07/22 09:27:04;;;;;;;5.32;4.25;;;;;;;23.76;55.60;95001.94;5032952;28;20029;-77
2021/07/22 09:29:29;;;;;;;5.60;4.90;;;;;;;23.72;57.21;95003.53;5049140;28;20029;-78
2021/07/22 09:32:03;;;;;;;4.50;3.80;;;;;;;23.52;56.54;95005.97;5065450;28;20086;-76
2021/07/22 09:34:29;;;;;;;4.50;4.20;;;;;;;23.46;55.92;94999.03;5067204;28;20027;-75
2021/07/22 09:36:54;;;;;;;4.00;3.70;;;;;;;23.41;56.74;94997.13;5064601;28;20028;-76
2021/07/22 09:39:27;;;;;;;4.10;3.72;;;;;;;22.70;55.68;94998.09;5048539;28;20021;-74
2021/07/22 09:42:00;;;;;;;3.50;3.20;;;;;;;22.60;54.55;94997.97;5065877;28;20387;-75
2021/07/22 09:44:33;;;;;;;4.45;3.47;;;;;;;22.76;55.31;94996.34;5066138;28;20048;-76
2021/07/22 09:46:59;;;;;;;3.58;3.08;;;;;;;22.80;56.12;95003.53;5049040;28;20624;-75
2021/07/22 09:49:32;;;;;;;3.05;2.85;;;;;;;22.42;54.47;95001.66;5065402;28;20248;-77
2021/07/22 09:52:01;;;;;;;3.65;3.05;;;;;;;22.34;54.84;94993.38;5066591;28;20409;-76
2021/07/22 09:54:31;;;;;;;;;;;;;;;22.29;55.35;94999.38;5047836;28;20047;-75
2021/07/22 09:56:56;;;;;;;;;;;;;;;22.34;54.12;95007.38;5065575;28;19923;-75
2021/07/22 09:59:22;;;;;;;2.90;2.70;;;;;;;22.39;55.51;95007.44;5047380;28;19925;-75
2021/07/22 10:01:48;;;;;;;2.95;2.60;;;;;;;22.53;55.64;95005.25;5065072;28;20118;-75
2021/07/22 10:04:13;;;;;;;3.10;2.80;;;;;;;22.63;56.81;95005.41;5066471;28;20032;-75
2021/07/22 10:06:39;;;;;;;3.38;2.60;;;;;;;22.60;54.93;95004.03;5042275;28;20055;-75
2021/07/22 10:09:04;;;;;;;2.90;2.70;;;;;;;22.57;54.05;94991.31;5045135;28;20041;-75
2021/07/22 10:11:31;;;;;;;3.92;2.50;;;;;;;22.84;55.26;94994.06;5046607;28;20035;-76
2021/07/22 10:13:56;;;;;;;5.88;2.55;;;;;;;22.82;55.73;94998.00;5064273;28;20785;-75
2021/07/22 10:16:22;;;;;;;3.97;2.40;;;;;;;23.02;53.72;94995.63;5065082;28;20025;-76
2021/07/22 10:18:48;;;;;;;2.03;1.92;;;;;;;22.83;52.38;94992.47;5030967;28;20405;-76
2021/07/22 10:21:14;;;;;;;2.45;2.25;;;;;;;23.15;54.00;94994.44;5064325;28;20093;-76
2021/07/22 10:23:40;;;;;;;2.55;2.35;;;;;;;23.34;51.19;94993.84;5064825;28;20028;-77
2021/07/22 10:26:05;;;;;;;2.55;2.30;;;;;;;23.45;49.83;94989.50;5065705;28;20509;-77
2021/07/22 10:28:31;;;;;;;2.60;2.38;;;;;;;23.29;48.47;94990.34;5047038;28;20033;-76
2021/07/22 10:30:56;;;;;;;2.10;2.00;;;;;;;23.43;50.67;94992.41;5065595;28;20025;-75
2021/07/22 10:33:22;;;;;;;2.92;2.20;;;;;;;23.50;49.45;94979.75;5047612;28;20029;-75
2021/07/22 10:35:53;;;;;;;2.55;2.35;;;;;;;23.96;51.28;94983.59;5048043;28;20470;-76
2021/07/22 10:38:25;;;;;;;2.10;1.90;;;;;;;25.14;47.18;94974.25;5066346;28;20091;-75
2021/07/22 10:41:03;;;;;;;2.17;2.08;;;;;;;25.22;45.14;94972.16;5064995;28;20055;-76
2021/07/22 10:43:41;;;;;;;2.22;2.03;;;;;;;24.44;46.28;94973.91;5067150;28;20027;-73
2021/07/22 10:46:17;;;;;;;2.97;2.00;;;;;;;25.29;47.07;94970.06;5065120;28;20440;-76
2021/07/22 10:48:43;;;;;;;2.45;2.25;;;;;;;24.76;45.56;94960.56;5066060;28;20158;-75
2021/07/22 10:51:10;;;;;;;2.40;2.17;;;;;;;24.95;45.90;94954.56;5068535;28;20123;-76
2021/07/22 10:53:49;;;;;;;2.47;2.28;;;;;;;25.89;48.35;94967.50;5068326;28;20108;-75
2021/07/22 10:56:24;;;;;;;3.00;2.58;;;;;;;26.15;44.69;94965.63;5069058;28;20036;-76
2021/07/22 10:58:56;;;;;;;2.08;1.88;;;;;;;25.65;43.45;94963.78;5067953;28;20036;-74
2021/07/22 11:01:56;;;;;;;2.38;2.10;;;;;;;25.25;42.63;94963.69;5069522;28;20048;-75
2021/07/22 11:04:22;;;;;;;2.03;1.83;;;;;;;25.06;45.00;94964.16;5014766;28;20045;-74
2021/07/22 11:06:59;;;;;;;1.98;1.70;;;;;;;25.31;44.83;94963.44;5067627;28;20032;-76
2021/07/22 11:09:43;;;;;;;3.17;1.80;;;;;;;25.81;42.70;94959.28;5069500;28;20024;-75
2021/07/22 11:12:28;;;;;;;1.50;1.40;;;;;;;24.93;42.85;94955.88;5067094;28;20121;-75
2021/07/22 11:14:53;;;;;;;1.52;1.38;;;;;;;24.16;42.01;94953.88;5069256;28;20031;-74
2021/07/22 11:17:29;;;;;;;3.28;1.60;;;;;;;24.36;44.32;94948.72;5049678;28;20024;-75
2021/07/22 11:20:13;;;;;;;1.70;1.60;;;;;;;25.13;45.02;94950.66;5050642;28;20016;-75
2021/07/22 11:22:38;;;;;;;1.45;1.35;;;;;;;25.18;44.05;94940.84;5067350;28;20061;-75
2021/07/22 11:25:04;;;;;;;1.92;1.83;;;;;;;25.43;43.96;94937.44;5038751;28;20283;-74
2021/07/22 11:27:30;;;;;;;1.90;1.60;;;;;;;26.22;44.39;94931.66;5039891;28;20516;-75
2021/07/22 11:30:11;;;;;;;2.03;1.80;;;;;;;26.44;44.72;94932.16;5039434;28;20118;-75
2021/07/22 11:32:37;;;;;;;1.63;1.52;;;;;;;25.85;43.36;94923.19;5057664;28;20055;-75
2021/07/22 11:35:02;;;;;;;3.05;1.58;;;;;;;25.87;41.56;94926.38;5058104;28;20021;-75
2021/07/22 11:37:28;;;;;;;2.17;1.63;;;;;;;26.53;44.27;94919.09;5059032;28;20025;-74
2021/07/22 11:39:54;;;;;;;1.80;1.58;;;;;;;26.30;40.03;94920.47;5040621;28;20044;-74
2021/07/22 11:42:20;;;;;;;1.98;1.88;;;;;;;26.13;41.90;94917.31;5039045;28;20059;-75
2021/07/22 11:45:03;;;;;;;6.47;2.00;;;;;;;25.95;42.88;94916.00;5015690;28;20033;-75
2021/07/22 11:47:32;;;;;;;2.65;1.80;;;;;;;26.08;43.39;94909.34;5050877;28;20024;-75
2021/07/22 11:49:58;;;;;;;2.40;1.35;;;;;;;27.22;42.95;94911.13;5067096;28;20108;-75
2021/07/22 11:52:27;;;;;;;1.98;1.88;;;;;;;26.94;44.15;94914.47;5068913;28;20032;-76
2021/07/22 11:55:11;;;;;;;2.15;1.95;;;;;;;26.16;46.00;94920.28;5066853;28;20062;-75
2021/07/22 11:57:37;;;;;;;2.38;2.17;;;;;;;25.96;46.57;94920.25;5061281;28;20048;-75
2021/07/22 12:00:16;;;;;;;2.38;2.17;;;;;;;25.98;46.84;94912.81;5067225;28;20486;-75
2021/07/22 12:02:46;;;;;;;3.67;2.00;;;;;;;26.16;46.49;94919.47;5066338;28;20036;-75
2021/07/22 12:05:12;;;;;;;2.03;1.92;;;;;;;26.18;46.61;94912.81;5068049;28;20111;-74
2021/07/22 12:07:37;;;;;;;2.47;2.00;;;;;;;25.74;46.31;94918.94;5049233;28;20028;-75
2021/07/22 12:10:03;;;;;;;2.13;1.95;;;;;;;25.36;46.82;94915.72;5068192;28;20021;-75
2021/07/22 12:12:29;;;;;;;2.08;1.92;;;;;;;26.05;47.55;94915.19;5066705;28;20060;-74
2021/07/22 12:15:07;;;;;;;2.95;1.92;;;;;;;26.00;46.25;94909.91;5068224;28;20102;-75
2021/07/22 12:17:33;;;;;;;2.10;2.00;;;;;;;25.36;47.31;94905.09;5067131;28;20077;-75
2021/07/22 12:19:59;;;;;;;6.05;2.60;;;;;;;25.31;48.47;94904.28;5033367;28;20433;-76
2021/07/22 12:22:27;;;;;;;2.97;1.85;;;;;;;25.21;48.87;94913.00;5067073;28;20732;-75
2021/07/22 12:25:12;;;;;;;4.95;1.90;;;;;;;25.33;48.86;94912.78;5065135;28;20032;-75
2021/07/22 12:27:44;;;;;;;1.83;1.58;;;;;;;24.90;47.77;94914.00;5066714;28;20070;-75
2021/07/22 12:30:13;;;;;;;2.05;1.85;;;;;;;25.01;48.22;94913.75;5065067;28;20025;-75
2021/07/22 12:32:55;;;;;;;2.20;2.00;;;;;;;25.21;46.31;94902.41;5066373;28;20066;-75
2021/07/22 12:35:38;;;;;;;1.90;1.80;;;;;;;25.11;44.93;94897.06;5032520;28;20113;-74
2021/07/22 12:38:10;;;;;;;1.92;1.77;;;;;;;25.37;47.35;94895.25;5059041;28;20365;-75
2021/07/22 12:40:49;;;;;;;2.08;1.98;;;;;;;24.89;46.79;94892.00;5045690;28;20025;-75
2021/07/22 12:43:19;;;;;;;1.77;1.67;;;;;;;24.87;47.04;94896.78;5058693;28;20020;-75
2021/07/22 12:45:46;;;;;;;1.70;1.60;;;;;;;25.17;46.53;94896.81;5063992;28;20034;-75
2021/07/22 12:48:14;;;;;;;2.22;1.85;;;;;;;25.32;46.20;94898.72;5066500;28;20105;-74
2021/07/22 12:50:44;;;;;;;3.08;2.03;;;;;;;25.25;47.55;94894.72;5064677;28;20416;-74
2021/07/22 12:53:14;;;;;;;3.05;2.10;;;;;;;24.54;47.62;94890.00;5066369;28;20029;-74
2021/07/22 12:58:47;;;;;;;2.05;1.95;;;;;;;24.56;46.16;94885.22;5065665;28;20035;-74
2021/07/22 13:01:16;;;;;;;;;;;;;;;24.67;46.94;94872.81;5066571;28;20447;-75
2021/07/22 13:03:43;;;;;;;3.47;1.77;;;;;;;24.76;47.76;94886.34;5064587;28;19939;-75
2021/07/22 13:06:12;;;;;;;1.80;1.70;;;;;;;24.81;48.54;94878.44;5065538;28;20866;-75
2021/07/22 13:08:38;;;;;;;2.05;1.90;;;;;;;24.80;46.37;94874.97;5064283;28;20044;-75
2021/07/22 13:11:06;;;;;;;2.42;1.58;;;;;;;25.00;45.54;94876.91;5064456;28;20024;-74
2021/07/22 13:13:34;;;;;;;1.92;1.77;;;;;;;24.54;47.88;94882.03;5063661;28;20024;-75
2021/07/22 13:15:59;;;;;;;2.10;1.90;;;;;;;24.31;47.15;94879.81;5064699;28;20024;-73
2021/07/22 13:18:25;;;;;;;2.08;1.77;;;;;;;24.23;48.61;94879.50;5047783;28;20559;-74
2021/07/22 13:20:51;;;;;;;1.90;1.60;;;;;;;24.28;49.27;94879.53;5041365;28;20494;-74
2021/07/22 13:23:17;;;;;;;4.13;1.80;;;;;;;24.25;47.70;94867.59;5028518;28;20029;-74
2021/07/22 13:25:42;;;;;;;3.33;1.70;;;;;;;24.06;47.87;94872.50;5043764;28;20536;-74
2021/07/22 13:28:08;;;;;;;1.88;1.70;;;;;;;24.34;47.18;94865.28;5045560;28;20045;-75
2021/07/22 13:30:33;;;;;;;1.70;1.60;;;;;;;24.67;48.26;94867.53;5044328;28;20028;-72
2021/07/22 13:32:59;;;;;;;2.08;1.70;;;;;;;25.17;48.80;94862.34;5043761;28;20036;-73
2021/07/22 13:35:33;;;;;;;2.00;1.67;;;;;;;25.45;46.84;94862.91;5044791;28;20024;-73
2021/07/22 13:37:59;;;;;;;4.30;4.00;;;;;;;25.02;47.16;94862.34;5044038;28;20021;-73
2021/07/22 13:40:24;;;;;;;2.50;2.30;;;;;;;25.16;47.82;94859.97;5044043;28;20047;-75
2021/07/22 13:42:50;;;;;;;3.25;2.40;;;;;;;25.18;47.77;94855.19;5043563;28;20031;-75
2021/07/22 13:45:16;;;;;;;1.58;1.42;;;;;;;25.24;48.54;94862.09;5044265;28;20052;-75
2021/07/22 13:47:42;;;;;;;2.30;2.15;;;;;;;24.89;49.03;94856.72;5042545;28;20514;-72
2021/07/22 13:50:08;;;;;;;3.42;2.22;;;;;;;24.88;49.75;94853.31;5042926;28;20032;-75
2021/07/22 13:52:33;;;;;;;3.28;1.83;;;;;;;24.91;48.69;94852.78;5044085;28;20534;-73
2021/07/22 13:54:59;;;;;;;1.88;1.73;;;;;;;24.89;48.41;94859.38;5044434;28;20036;-72
2021/07/22 13:57:25;;;;;;;4.15;1.83;;;;;;;24.77;49.60;94854.31;5045352;28;20021;-73
2021/07/22 13:59:50;;;;;;;1.90;1.80;;;;;;;24.74;49.09;94859.31;5042237;28;20025;-71
2021/07/22 14:02:16;;;;;;;2.08;1.88;;;;;;;24.77;49.34;94851.66;5045399;28;20075;-74
2021/07/22 14:04:41;;;;;;;1.98;1.88;;;;;;;24.76;49.35;94847.41;5024201;28;20465;-73
2021/07/22 14:07:07;;;;;;;2.15;1.80;;;;;;;24.77;50.12;94848.19;5042554;28;20029;-72
2021/07/22 14:09:32;;;;;;;2.35;1.70;;;;;;;24.74;50.27;94851.38;5042399;28;20033;-73
2021/07/22 14:11:58;;;;;;;1.75;1.65;;;;;;;24.14;50.07;94855.38;5042565;28;20427;-73
2021/07/22 14:14:23;;;;;;;1.70;1.60;;;;;;;23.73;50.71;94859.59;5042124;28;20287;-73
2021/07/22 14:16:49;;;;;;;1.88;1.73;;;;;;;23.51;51.46;94856.25;5041354;28;20025;-75
2021/07/22 14:19:14;;;;;;;2.20;1.98;;;;;;;23.48;51.51;94851.47;5043383;28;20021;-74
2021/07/22 14:21:40;;;;;;;2.33;1.67;;;;;;;24.25;48.85;94850.91;5054602;28;20040;-73
2021/07/22 14:24:05;;;;;;;4.38;1.85;;;;;;;24.34;47.88;94847.53;5047531;28;20037;-73
2021/07/22 14:26:31;;;;;;;1.52;1.42;;;;;;;24.36;47.33;94856.03;5064345;28;20020;-71
2021/07/22 14:28:56;;;;;;;1.60;1.50;;;;;;;24.25;49.24;94854.38;5062680;28;20082;-73
2021/07/22 14:31:22;;;;;;;1.67;1.58;;;;;;;24.09;49.89;94853.47;5049077;28;20064;-75
2021/07/22 14:33:47;;;;;;;1.95;1.75;;;;;;;23.82;50.07;94852.00;5049695;28;20021;-73
2021/07/22 14:36:13;;;;;;;2.70;1.48;;;;;;;23.66;50.82;94859.03;5068258;28;20029;-73
2021/07/22 14:38:39;;;;;;;2.65;1.95;;;;;;;23.52;52.98;94857.88;5066745;28;20134;-72
2021/07/22 14:41:04;;;;;;;2.22;1.75;;;;;;;23.76;52.27;94839.78;5068065;28;20025;-73
2021/07/22 14:43:31;;;;;;;2.13;2.03;;;;;;;23.99;50.54;94842.03;5067264;28;20115;-74
2021/07/22 14:45:56;;;;;;;2.03;1.83;;;;;;;24.27;52.05;94851.47;5050946;28;20024;-73
2021/07/22 14:48:21;;;;;;;2.28;1.75;;;;;;;24.30;50.31;94843.81;5066782;28;20087;-73
2021/07/22 14:50:47;;;;;;;2.38;1.73;;;;;;;24.33;48.99;94837.19;5049455;28;20043;-73
2021/07/22 14:53:12;;;;;;;3.97;1.60;;;;;;;24.39;49.32;94844.09;5067480;28;20037;-73
2021/07/22 14:55:38;;;;;;;1.65;1.55;;;;;;;24.41;50.41;94845.44;5067246;28;20379;-73
2021/07/22 14:58:03;;;;;;;1.90;1.73;;;;;;;24.36;49.46;94834.84;5068177;28;20025;-73
2021/07/22 15:00:29;;;;;;;2.40;1.60;;;;;;;24.24;47.98;94839.53;5067175;28;20024;-74
2021/07/22 15:02:55;;;;;;;1.60;1.50;;;;;;;24.29;49.02;94836.91;5068297;28;20573;-74
2021/07/22 15:05:21;;;;;;;3.38;1.60;;;;;;;24.09;49.09;94842.09;5067335;28;20484;-73
2021/07/22 15:07:46;;;;;;;2.63;2.05;;;;;;;24.18;49.53;94837.91;5067675;28;20020;-73
2021/07/22 15:10:12;;;;;;;2.22;2.05;;;;;;;24.08;49.50;94841.28;5067141;28;20031;-73
2021/07/22 15:12:37;;;;;;;1.42;1.33;;;;;;;24.02;49.14;94831.72;5066994;28;20047;-73
2021/07/22 15:15:03;;;;;;;2.30;1.50;;;;;;;24.00;49.86;94833.03;5059412;28;20035;-73
2021/07/22 15:17:29;;;;;;;1.77;1.67;;;;;;;24.05;50.42;94841.00;5066478;28;20115;-74
2021/07/22 15:19:57;;;;;;;3.20;1.75;;;;;;;23.98;49.38;94837.81;5067376;28;20206;-73
2021/07/22 15:22:28;;;;;;;1.90;1.80;;;;;;;23.91;50.19;94840.69;5066439;28;20048;-73
2021/07/22 15:24:58;;;;;;;3.83;1.83;;;;;;;23.90;49.98;94838.28;5066551;28;20032;-73
2021/07/22 15:27:23;;;;;;;3.10;1.60;;;;;;;23.92;50.64;94836.97;5065772;28;20040;-73
2021/07/22 15:29:49;;;;;;;1.90;1.80;;;;;;;23.87;50.00;94838.78;5065905;28;20198;-73
2021/07/22 15:32:14;;;;;;;1.70;1.58;;;;;;;23.59;49.73;94832.81;5058374;28;20025;-73
2021/07/22 15:34:39;;;;;;;2.00;1.90;;;;;;;23.72;51.58;94834.22;5045772;28;20025;-73
2021/07/22 15:37:08;;;;;;;2.60;1.70;;;;;;;23.61;50.17;94837.81;5046798;28;20082;-74
2021/07/22 15:39:35;;;;;;;3.60;2.05;;;;;;;23.48;50.76;94831.13;5045929;28;20048;-74
2021/07/22 15:42:00;;;;;;;1.65;1.55;;;;;;;23.64;51.79;94834.66;5029562;28;20049;-73
2021/07/22 15:44:26;;;;;;;2.10;1.90;;;;;;;23.69;52.07;94833.91;5046146;28;20514;-73
2021/07/22 15:46:51;;;;;;;1.98;1.80;;;;;;;23.62;52.87;94826.19;5046604;28;21017;-73
2021/07/22 15:49:16;;;;;;;2.70;1.95;;;;;;;23.55;52.37;94825.63;5047278;28;20033;-74
2021/07/22 15:51:42;;;;;;;2.03;1.88;;;;;;;23.41;52.48;94821.81;5045341;28;20037;-74
2021/07/22 15:54:08;;;;;;;3.70;1.70;;;;;;;23.35;52.63;94826.22;5047796;28;20452;-74
2021/07/22 15:56:34;;;;;;;1.92;1.60;;;;;;;23.31;52.95;94821.72;5044918;28;20407;-73
2021/07/22 15:58:59;;;;;;;2.08;1.67;;;;;;;23.16;52.96;94811.81;5046793;28;20047;-73
2021/07/22 16:01:25;;;;;;;5.22;2.00;;;;;;;23.07;53.23;94829.97;5028139;28;20415;-74
2021/07/22 16:03:50;;;;;;;2.47;2.00;;;;;;;23.15;53.22;94826.06;5046462;28;20033;-73
2021/07/22 16:06:16;;;;;;;1.90;1.52;;;;;;;23.18;53.78;94827.44;5046209;28;20045;-74
2021/07/22 16:08:41;;;;;;;3.75;1.90;;;;;;;23.17;54.80;94825.81;5036293;28;20575;-73
2021/07/22 16:11:08;;;;;;;2.40;1.77;;;;;;;23.20;54.70;94826.13;5065320;28;20501;-73
2021/07/22 16:13:33;;;;;;;2.22;2.03;;;;;;;23.16;55.01;94827.66;5047832;28;20095;-73
2021/07/22 16:15:59;;;;;;;1.90;1.70;;;;;;;23.01;54.48;94830.97;5066596;28;20028;-73
2021/07/22 16:18:24;;;;;;;3.03;2.15;;;;;;;22.99;54.79;94833.06;5064880;28;20105;-74
2021/07/22 16:20:50;;;;;;;2.05;1.95;;;;;;;23.02;55.50;94832.56;5065840;28;20083;-74
2021/07/22 16:23:15;;;;;;;4.70;1.95;;;;;;;22.99;55.63;94834.91;5065309;28;20043;-74
2021/07/22 16:25:41;;;;;;;3.35;2.10;;;;;;;22.91;54.91;94835.38;5041231;28;20025;-74
2021/07/22 16:28:06;;;;;;;2.00;1.80;;;;;;;22.81;55.36;94833.44;5059546;28;20501;-74
2021/07/22 16:30:32;;;;;;;2.50;2.28;;;;;;;22.76;54.55;94835.22;5050699;28;20467;-73
2021/07/22 16:32:57;;;;;;;1.88;1.73;;;;;;;22.70;56.02;94841.50;5066316;28;20055;-74
2021/07/22 16:35:24;;;;;;;1.60;1.50;;;;;;;22.62;54.98;94821.56;5046898;28;20450;-73
2021/07/22 16:37:50;;;;;;;2.35;1.77;;;;;;;22.55;55.10;94834.16;5048716;28;20078;-73
2021/07/22 16:40:16;;;;;;;2.00;1.80;;;;;;;22.57;55.98;94845.31;5059382;28;20049;-74
2021/07/22 16:42:41;;;;;;;2.55;1.42;;;;;;;22.53;56.22;94845.00;5045986;28;20029;-73
2021/07/22 16:45:07;;;;;;;2.65;1.70;;;;;;;22.47;56.54;94853.91;5045435;28;20498;-73
2021/07/22 16:47:33;;;;;;;7.18;1.85;;;;;;;22.37;57.26;94851.16;5047251;28;20504;-73
2021/07/22 16:49:58;;;;;;;3.50;2.03;;;;;;;22.35;56.72;94847.13;5064377;28;20093;-74
2021/07/22 16:52:24;;;;;;;1.90;1.80;;;;;;;22.25;57.75;94847.81;5050401;28;20067;-74
2021/07/22 16:54:49;;;;;;;2.80;1.45;;;;;;;22.25;57.78;94847.03;5037991;28;20440;-73
2021/07/22 16:57:16;;;;;;;2.75;1.70;;;;;;;22.14;57.82;94848.75;5054809;28;20051;-73
2021/07/22 16:59:42;;;;;;;1.80;1.60;;;;;;;22.16;57.95;94859.03;5039287;28;20135;-73
2021/07/22 17:02:07;;;;;;;2.65;1.95;;;;;;;22.08;58.84;94862.09;5057399;28;20505;-73
2021/07/22 17:04:32;;;;;;;1.77;1.67;;;;;;;21.94;59.68;94856.38;5058804;28;20028;-73
2021/07/22 17:06:58;;;;;;;2.72;1.77;;;;;;;21.82;60.68;94856.47;5035649;28;20103;-73
2021/07/22 17:09:25;;;;;;;3.03;1.70;;;;;;;21.77;62.18;94856.38;5058420;28;20025;-73
2021/07/22 17:11:50;;;;;;;3.08;1.70;;;;;;;21.71;62.69;94859.16;5058359;28;20418;-73
2021/07/22 17:14:16;;;;;;;2.08;1.83;;;;;;;21.61;63.49;94864.31;5055355;28;20044;-74